sensor_id;sensor_type;location;lat;lon;timestamp;pressure;altitude;pressure_sealevel;temperature;humidity
50702;BME280;36670;50.094;8.496;2022-10-31T00:01:58;100806.00;;;14.36;68.64
50702;BME280;36670;50.094;8.496;2022-10-31T00:04:23;100802.44;;;14.41;68.33
50702;BME280;36670;50.094;8.496;2022-10-31T00:06:49;100810.19;;;14.39;68.43
50702;BME280;36670;50.094;8.496;2022-10-31T00:09:14;100805.44;;;14.34;68.64
50702;BME280;36670;50.094;8.496;2022-10-31T00:11:39;100806.09;;;14.14;68.91
50702;BME280;36670;50.094;8.496;2022-10-31T00:14:05;100806.06;;;14.09;69.74
50702;BME280;36670;50.094;8.496;2022-10-31T00:16:30;100809.78;;;14.25;69.30
50702;BME280;36670;50.094;8.496;2022-10-31T00:18:59;100812.41;;;14.42;68.43
50702;BME280;36670;50.094;8.496;2022-10-31T00:21:25;100816.38;;;14.51;68.76
50702;BME280;36670;50.094;8.496;2022-10-31T00:23:51;100817.56;;;14.60;68.27
50702;BME280;36670;50.094;8.496;2022-10-31T00:26:18;100825.03;;;14.55;68.19
50702;BME280;36670;50.094;8.496;2022-10-31T00:28:43;100820.31;;;14.55;68.28
50702;BME280;36670;50.094;8.496;2022-10-31T00:31:10;100816.66;;;14.49;68.48
50702;BME280;36670;50.094;8.496;2022-10-31T00:33:37;100814.91;;;14.38;68.75
50702;BME280;36670;50.094;8.496;2022-10-31T00:36:04;100821.28;;;14.39;69.24
50702;BME280;36670;50.094;8.496;2022-10-31T00:38:30;100823.28;;;14.43;68.98
50702;BME280;36670;50.094;8.496;2022-10-31T00:40:56;100824.19;;;14.54;67.93
50702;BME280;36670;50.094;8.496;2022-10-31T00:43:21;100824.59;;;14.63;68.26
50702;BME280;36670;50.094;8.496;2022-10-31T00:45:46;100824.06;;;14.33;68.54
50702;BME280;36670;50.094;8.496;2022-10-31T00:48:12;100824.91;;;14.07;69.55
50702;BME280;36670;50.094;8.496;2022-10-31T00:50:37;100827.97;;;13.78;70.21
50702;BME280;36670;50.094;8.496;2022-10-31T00:53:03;100831.13;;;14.19;68.95
50702;BME280;36670;50.094;8.496;2022-10-31T00:55:29;100829.84;;;14.32;69.28
50702;BME280;36670;50.094;8.496;2022-10-31T00:57:54;100828.88;;;14.48;69.14
50702;BME280;36670;50.094;8.496;2022-10-31T01:00:20;100824.72;;;14.51;69.07
50702;BME280;36670;50.094;8.496;2022-10-31T01:02:45;100830.81;;;14.48;69.23
50702;BME280;36670;50.094;8.496;2022-10-31T01:05:10;100823.03;;;14.50;68.79
50702;BME280;36670;50.094;8.496;2022-10-31T01:07:37;100826.69;;;14.56;68.44
50702;BME280;36670;50.094;8.496;2022-10-31T01:10:03;100828.19;;;14.63;68.11
50702;BME280;36670;50.094;8.496;2022-10-31T01:12:28;100837.06;;;14.65;68.24
50702;BME280;36670;50.094;8.496;2022-10-31T01:14:54;100830.16;;;14.68;68.45
50702;BME280;36670;50.094;8.496;2022-10-31T01:17:19;100822.69;;;14.74;68.12
50702;BME280;36670;50.094;8.496;2022-10-31T01:19:44;100833.56;;;14.75;67.49
50702;BME280;36670;50.094;8.496;2022-10-31T01:22:09;100819.41;;;14.77;67.50
50702;BME280;36670;50.094;8.496;2022-10-31T01:24:35;100823.34;;;14.54;67.86
50702;BME280;36670;50.094;8.496;2022-10-31T01:27:00;100819.78;;;14.58;68.01
50702;BME280;36670;50.094;8.496;2022-10-31T01:29:25;100819.50;;;14.55;68.12
50702;BME280;36670;50.094;8.496;2022-10-31T01:31:51;100817.25;;;14.57;68.12
50702;BME280;36670;50.094;8.496;2022-10-31T01:34:16;100821.72;;;14.58;67.72
50702;BME280;36670;50.094;8.496;2022-10-31T01:36:43;100822.91;;;14.29;68.69
50702;BME280;36670;50.094;8.496;2022-10-31T01:39:14;100825.16;;;14.38;68.15
50702;BME280;36670;50.094;8.496;2022-10-31T01:41:57;100820.91;;;14.25;68.85
50702;BME280;36670;50.094;8.496;2022-10-31T01:46:59;100812.63;;;14.30;68.37
50702;BME280;36670;50.094;8.496;2022-10-31T01:49:35;100820.81;;;13.87;69.24
50702;BME280;36670;50.094;8.496;2022-10-31T01:52:04;100817.69;;;14.06;68.68
50702;BME280;36670;50.094;8.496;2022-10-31T01:54:37;100812.34;;;13.99;69.21
50702;BME280;36670;50.094;8.496;2022-10-31T01:57:06;100811.69;;;14.19;69.12
50702;BME280;36670;50.094;8.496;2022-10-31T01:59:37;100805.38;;;14.29;69.11
50702;BME280;36670;50.094;8.496;2022-10-31T02:02:05;100821.75;;;14.25;68.97
50702;BME280;36670;50.094;8.496;2022-10-31T02:04:31;100815.81;;;14.11;69.07
50702;BME280;36670;50.094;8.496;2022-10-31T02:07:01;100806.69;;;13.61;70.03
50702;BME280;36670;50.094;8.496;2022-10-31T02:09:29;100810.31;;;13.62;70.12
50702;BME280;36670;50.094;8.496;2022-10-31T02:11:57;100804.75;;;13.18;72.06
50702;BME280;36670;50.094;8.496;2022-10-31T02:14:25;100806.63;;;13.34;71.73
50702;BME280;36670;50.094;8.496;2022-10-31T02:16:51;100807.69;;;13.77;70.81
50702;BME280;36670;50.094;8.496;2022-10-31T02:19:35;100811.56;;;14.04;70.13
50702;BME280;36670;50.094;8.496;2022-10-31T02:22:12;100813.19;;;13.99;69.61
50702;BME280;36670;50.094;8.496;2022-10-31T02:30:20;100815.94;;;13.72;71.09
50702;BME280;36670;50.094;8.496;2022-10-31T02:33:01;100811.34;;;13.83;70.37
50702;BME280;36670;50.094;8.496;2022-10-31T02:38:16;100816.63;;;13.85;70.65
50702;BME280;36670;50.094;8.496;2022-10-31T02:43:32;100821.56;;;13.77;69.96
50702;BME280;36670;50.094;8.496;2022-10-31T02:46:11;100817.09;;;14.04;69.68
50702;BME280;36670;50.094;8.496;2022-10-31T02:48:42;100815.00;;;14.16;69.12
50702;BME280;36670;50.094;8.496;2022-10-31T02:51:11;100813.91;;;14.17;69.70
50702;BME280;36670;50.094;8.496;2022-10-31T02:53:37;100820.63;;;14.26;69.17
50702;BME280;36670;50.094;8.496;2022-10-31T02:56:13;100818.72;;;14.32;68.89
50702;BME280;36670;50.094;8.496;2022-10-31T02:59:02;100817.09;;;14.36;68.26
50702;BME280;36670;50.094;8.496;2022-10-31T03:04:49;100805.88;;;14.21;69.05
50702;BME280;36670;50.094;8.496;2022-10-31T03:07:32;100796.38;;;14.16;68.37
50702;BME280;36670;50.094;8.496;2022-10-31T03:15:26;100806.28;;;14.02;68.55
50702;BME280;36670;50.094;8.496;2022-10-31T03:20:53;100814.31;;;13.76;69.25
50702;BME280;36670;50.094;8.496;2022-10-31T03:23:22;100810.72;;;13.76;68.75
50702;BME280;36670;50.094;8.496;2022-10-31T03:25:50;100809.41;;;13.56;69.80
50702;BME280;36670;50.094;8.496;2022-10-31T03:28:21;100815.16;;;13.49;69.40
50702;BME280;36670;50.094;8.496;2022-10-31T03:30:49;100812.84;;;13.41;69.72
50702;BME280;36670;50.094;8.496;2022-10-31T03:33:18;100806.31;;;13.30;70.68
50702;BME280;36670;50.094;8.496;2022-10-31T03:35:47;100806.56;;;13.29;70.71
50702;BME280;36670;50.094;8.496;2022-10-31T03:38:14;100793.81;;;13.28;70.95
50702;BME280;36670;50.094;8.496;2022-10-31T03:40:41;100800.59;;;13.37;70.84
50702;BME280;36670;50.094;8.496;2022-10-31T03:43:10;100795.22;;;13.53;70.68
50702;BME280;36670;50.094;8.496;2022-10-31T03:45:44;100794.41;;;13.79;70.08
50702;BME280;36670;50.094;8.496;2022-10-31T03:48:11;100790.63;;;13.91;69.80
50702;BME280;36670;50.094;8.496;2022-10-31T03:53:30;100790.28;;;13.87;69.30
50702;BME280;36670;50.094;8.496;2022-10-31T03:56:04;100793.97;;;13.93;69.51
50702;BME280;36670;50.094;8.496;2022-10-31T03:58:45;100797.69;;;13.76;69.00
50702;BME280;36670;50.094;8.496;2022-10-31T04:01:15;100791.16;;;13.60;69.86
50702;BME280;36670;50.094;8.496;2022-10-31T04:03:42;100787.91;;;13.69;69.77
50702;BME280;36670;50.094;8.496;2022-10-31T04:06:10;100790.75;;;13.74;70.14
50702;BME280;36670;50.094;8.496;2022-10-31T04:08:44;100783.63;;;13.56;69.50
50702;BME280;36670;50.094;8.496;2022-10-31T04:11:12;100785.97;;;13.42;70.29
50702;BME280;36670;50.094;8.496;2022-10-31T04:13:39;100791.66;;;13.57;70.26
50702;BME280;36670;50.094;8.496;2022-10-31T04:16:07;100794.69;;;13.11;70.84
50702;BME280;36670;50.094;8.496;2022-10-31T04:18:34;100793.41;;;13.41;70.40
50702;BME280;36670;50.094;8.496;2022-10-31T04:21:01;100801.53;;;13.48;70.29
50702;BME280;36670;50.094;8.496;2022-10-31T04:23:27;100802.69;;;13.30;71.00
50702;BME280;36670;50.094;8.496;2022-10-31T04:25:53;100801.47;;;13.43;70.58
50702;BME280;36670;50.094;8.496;2022-10-31T04:28:18;100808.63;;;13.39;70.46
50702;BME280;36670;50.094;8.496;2022-10-31T04:30:44;100806.72;;;13.39;70.22
50702;BME280;36670;50.094;8.496;2022-10-31T04:33:09;100812.06;;;13.24;71.06
50702;BME280;36670;50.094;8.496;2022-10-31T04:35:35;100820.28;;;12.96;71.92
50702;BME280;36670;50.094;8.496;2022-10-31T04:38:00;100816.69;;;12.96;72.12
50702;BME280;36670;50.094;8.496;2022-10-31T04:40:25;100820.81;;;13.15;71.96
50702;BME280;36670;50.094;8.496;2022-10-31T04:42:50;100826.25;;;13.49;70.83
50702;BME280;36670;50.094;8.496;2022-10-31T04:45:16;100819.81;;;13.44;71.03
50702;BME280;36670;50.094;8.496;2022-10-31T04:47:41;100833.03;;;13.59;70.84
50702;BME280;36670;50.094;8.496;2022-10-31T04:50:07;100821.84;;;13.54;71.08
50702;BME280;36670;50.094;8.496;2022-10-31T04:52:32;100822.78;;;13.37;71.21
50702;BME280;36670;50.094;8.496;2022-10-31T04:55:03;100813.84;;;13.13;71.76
50702;BME280;36670;50.094;8.496;2022-10-31T04:57:28;100803.94;;;13.17;72.76
50702;BME280;36670;50.094;8.496;2022-10-31T04:59:54;100815.63;;;13.02;72.73
50702;BME280;36670;50.094;8.496;2022-10-31T05:02:19;100813.03;;;13.12;71.92
50702;BME280;36670;50.094;8.496;2022-10-31T05:04:44;100809.53;;;13.00;72.52
50702;BME280;36670;50.094;8.496;2022-10-31T05:07:09;100805.09;;;13.21;72.21
50702;BME280;36670;50.094;8.496;2022-10-31T05:09:35;100800.56;;;13.15;72.71
50702;BME280;36670;50.094;8.496;2022-10-31T05:12:00;100801.69;;;12.97;73.30
50702;BME280;36670;50.094;8.496;2022-10-31T05:14:25;100794.31;;;13.03;72.99
50702;BME280;36670;50.094;8.496;2022-10-31T05:16:51;100792.94;;;13.05;72.86
50702;BME280;36670;50.094;8.496;2022-10-31T05:19:16;100793.72;;;13.01;74.17
50702;BME280;36670;50.094;8.496;2022-10-31T05:21:41;100789.00;;;13.01;73.57
50702;BME280;36670;50.094;8.496;2022-10-31T05:24:07;100801.00;;;13.29;72.57
50702;BME280;36670;50.094;8.496;2022-10-31T05:26:32;100789.00;;;13.40;72.94
50702;BME280;36670;50.094;8.496;2022-10-31T05:28:57;100789.00;;;13.23;73.31
50702;BME280;36670;50.094;8.496;2022-10-31T05:31:23;100794.91;;;13.27;73.25
50702;BME280;36670;50.094;8.496;2022-10-31T05:33:48;100799.66;;;13.54;72.21
50702;BME280;36670;50.094;8.496;2022-10-31T05:36:13;100792.25;;;13.59;72.42
50702;BME280;36670;50.094;8.496;2022-10-31T05:38:38;100795.28;;;13.36;72.81
50702;BME280;36670;50.094;8.496;2022-10-31T05:41:04;100798.50;;;13.27;73.36
50702;BME280;36670;50.094;8.496;2022-10-31T05:43:29;100786.69;;;13.59;72.94
50702;BME280;36670;50.094;8.496;2022-10-31T05:45:55;100790.22;;;13.77;72.31
50702;BME280;36670;50.094;8.496;2022-10-31T05:48:21;100784.13;;;13.80;71.81
50702;BME280;36670;50.094;8.496;2022-10-31T05:50:47;100791.78;;;13.68;72.40
50702;BME280;36670;50.094;8.496;2022-10-31T05:53:13;100788.78;;;13.74;72.53
50702;BME280;36670;50.094;8.496;2022-10-31T05:55:38;100779.66;;;13.79;72.34
50702;BME280;36670;50.094;8.496;2022-10-31T05:58:06;100786.44;;;13.88;71.93
50702;BME280;36670;50.094;8.496;2022-10-31T06:00:31;100787.09;;;14.00;71.60
50702;BME280;36670;50.094;8.496;2022-10-31T06:03:01;100785.75;;;14.08;71.02
50702;BME280;36670;50.094;8.496;2022-10-31T06:05:27;100794.44;;;13.85;71.65
50702;BME280;36670;50.094;8.496;2022-10-31T06:07:52;100791.84;;;13.73;71.84
50702;BME280;36670;50.094;8.496;2022-10-31T06:10:17;100789.91;;;13.51;72.49
50702;BME280;36670;50.094;8.496;2022-10-31T06:12:44;100783.38;;;13.62;72.43
50702;BME280;36670;50.094;8.496;2022-10-31T06:15:09;100784.81;;;13.65;71.93
50702;BME280;36670;50.094;8.496;2022-10-31T06:17:35;100790.22;;;13.77;72.23
50702;BME280;36670;50.094;8.496;2022-10-31T06:20:01;100785.66;;;13.65;72.30
50702;BME280;36670;50.094;8.496;2022-10-31T06:22:26;100783.66;;;13.61;72.62
50702;BME280;36670;50.094;8.496;2022-10-31T06:24:52;100781.34;;;13.53;72.65
50702;BME280;36670;50.094;8.496;2022-10-31T06:27:17;100779.78;;;13.62;72.15
50702;BME280;36670;50.094;8.496;2022-10-31T06:29:43;100782.97;;;13.48;73.00
50702;BME280;36670;50.094;8.496;2022-10-31T06:32:10;100781.34;;;13.80;71.82
50702;BME280;36670;50.094;8.496;2022-10-31T06:34:36;100778.03;;;13.83;72.08
50702;BME280;36670;50.094;8.496;2022-10-31T06:37:02;100779.97;;;14.10;71.58
50702;BME280;36670;50.094;8.496;2022-10-31T06:39:27;100780.13;;;14.30;71.13
50702;BME280;36670;50.094;8.496;2022-10-31T06:41:52;100786.28;;;14.38;71.53
50702;BME280;36670;50.094;8.496;2022-10-31T06:44:17;100786.63;;;14.46;70.93
50702;BME280;36670;50.094;8.496;2022-10-31T06:46:43;100787.56;;;14.57;70.23
50702;BME280;36670;50.094;8.496;2022-10-31T06:49:08;100796.06;;;14.45;71.40
50702;BME280;36670;50.094;8.496;2022-10-31T06:51:33;100782.44;;;14.44;70.89
50702;BME280;36670;50.094;8.496;2022-10-31T06:53:59;100788.28;;;14.42;71.06
50702;BME280;36670;50.094;8.496;2022-10-31T06:56:24;100781.56;;;14.76;71.15
50702;BME280;36670;50.094;8.496;2022-10-31T06:58:49;100797.41;;;15.28;70.70
50702;BME280;36670;50.094;8.496;2022-10-31T07:01:14;100797.03;;;15.83;69.83
50702;BME280;36670;50.094;8.496;2022-10-31T07:03:40;100798.19;;;16.38;68.84
50702;BME280;36670;50.094;8.496;2022-10-31T07:06:05;100796.50;;;16.58;67.77
50702;BME280;36670;50.094;8.496;2022-10-31T07:08:30;100788.38;;;16.77;66.77
50702;BME280;36670;50.094;8.496;2022-10-31T07:10:57;100802.06;;;15.91;66.55
50702;BME280;36670;50.094;8.496;2022-10-31T07:13:22;100803.09;;;15.69;67.90
50702;BME280;36670;50.094;8.496;2022-10-31T07:15:52;100798.91;;;15.67;68.14
50702;BME280;36670;50.094;8.496;2022-10-31T07:18:18;100803.66;;;15.66;67.89
50702;BME280;36670;50.094;8.496;2022-10-31T07:20:43;100798.53;;;15.38;69.00
50702;BME280;36670;50.094;8.496;2022-10-31T07:23:10;100802.63;;;15.14;68.80
50702;BME280;36670;50.094;8.496;2022-10-31T07:25:37;100794.47;;;14.97;69.83
50702;BME280;36670;50.094;8.496;2022-10-31T07:28:02;100803.44;;;15.10;70.23
50702;BME280;36670;50.094;8.496;2022-10-31T07:30:27;100793.94;;;15.00;70.46
50702;BME280;36670;50.094;8.496;2022-10-31T07:32:53;100807.91;;;15.11;70.69
50702;BME280;36670;50.094;8.496;2022-10-31T07:35:23;100808.59;;;14.85;71.40
50702;BME280;36670;50.094;8.496;2022-10-31T07:37:49;100810.06;;;14.98;71.34
50702;BME280;36670;50.094;8.496;2022-10-31T07:40:15;100811.25;;;15.13;71.03
50702;BME280;36670;50.094;8.496;2022-10-31T07:42:43;100806.88;;;15.32;70.67
50702;BME280;36670;50.094;8.496;2022-10-31T07:45:10;100818.25;;;15.31;70.27
50702;BME280;36670;50.094;8.496;2022-10-31T07:50:05;100811.38;;;15.44;70.14
50702;BME280;36670;50.094;8.496;2022-10-31T07:52:31;100809.94;;;15.36;70.37
50702;BME280;36670;50.094;8.496;2022-10-31T07:54:56;100801.66;;;15.51;69.66
50702;BME280;36670;50.094;8.496;2022-10-31T07:57:21;100811.63;;;15.37;70.13
50702;BME280;36670;50.094;8.496;2022-10-31T07:59:46;100803.31;;;15.47;70.19
50702;BME280;36670;50.094;8.496;2022-10-31T08:02:12;100810.13;;;15.14;71.40
50702;BME280;36670;50.094;8.496;2022-10-31T08:04:37;100810.41;;;15.12;72.11
50702;BME280;36670;50.094;8.496;2022-10-31T08:07:02;100813.66;;;15.62;72.34
50702;BME280;36670;50.094;8.496;2022-10-31T08:09:27;100807.34;;;15.82;70.67
50702;BME280;36670;50.094;8.496;2022-10-31T08:11:53;100807.88;;;15.79;70.73
50702;BME280;36670;50.094;8.496;2022-10-31T08:14:18;100808.72;;;15.85;70.43
50702;BME280;36670;50.094;8.496;2022-10-31T08:16:44;100811.28;;;16.02;69.90
50702;BME280;36670;50.094;8.496;2022-10-31T08:19:09;100804.88;;;16.12;70.42
50702;BME280;36670;50.094;8.496;2022-10-31T08:21:34;100798.44;;;16.58;69.47
50702;BME280;36670;50.094;8.496;2022-10-31T08:23:59;100798.41;;;16.73;69.36
50702;BME280;36670;50.094;8.496;2022-10-31T08:26:25;100795.41;;;16.38;69.93
50702;BME280;36670;50.094;8.496;2022-10-31T08:28:50;100799.56;;;16.51;68.72
50702;BME280;36670;50.094;8.496;2022-10-31T08:31:16;100802.88;;;16.59;69.01
50702;BME280;36670;50.094;8.496;2022-10-31T08:33:41;100800.06;;;16.89;69.42
50702;BME280;36670;50.094;8.496;2022-10-31T08:36:07;100793.03;;;17.08;68.76
50702;BME280;36670;50.094;8.496;2022-10-31T08:38:32;100798.41;;;16.63;67.79
50702;BME280;36670;50.094;8.496;2022-10-31T08:40:57;100792.88;;;16.47;68.01
50702;BME280;36670;50.094;8.496;2022-10-31T08:43:22;100786.19;;;16.12;68.81
50702;BME280;36670;50.094;8.496;2022-10-31T08:45:49;100785.34;;;16.01;69.68
50702;BME280;36670;50.094;8.496;2022-10-31T08:48:15;100786.47;;;16.06;69.37
50702;BME280;36670;50.094;8.496;2022-10-31T08:50:42;100782.28;;;15.93;70.12
50702;BME280;36670;50.094;8.496;2022-10-31T08:53:11;100782.84;;;16.05;69.90
50702;BME280;36670;50.094;8.496;2022-10-31T08:55:38;100783.97;;;16.04;70.00
50702;BME280;36670;50.094;8.496;2022-10-31T08:58:06;100778.38;;;15.99;69.90
50702;BME280;36670;50.094;8.496;2022-10-31T09:00:33;100786.47;;;15.95;70.43
50702;BME280;36670;50.094;8.496;2022-10-31T09:03:01;100780.34;;;16.19;69.76
50702;BME280;36670;50.094;8.496;2022-10-31T09:05:28;100773.38;;;16.32;69.38
50702;BME280;36670;50.094;8.496;2022-10-31T09:07:57;100770.00;;;16.50;69.71
50702;BME280;36670;50.094;8.496;2022-10-31T09:10:24;100765.81;;;16.63;68.89
50702;BME280;36670;50.094;8.496;2022-10-31T09:12:56;100763.28;;;16.67;68.13
50702;BME280;36670;50.094;8.496;2022-10-31T09:15:22;100766.34;;;16.70;67.23
50702;BME280;36670;50.094;8.496;2022-10-31T09:17:48;100759.44;;;16.37;68.88
50702;BME280;36670;50.094;8.496;2022-10-31T09:20:13;100758.06;;;16.29;68.88
50702;BME280;36670;50.094;8.496;2022-10-31T09:22:39;100753.91;;;16.06;69.70
50702;BME280;36670;50.094;8.496;2022-10-31T09:25:04;100753.31;;;16.19;69.55
50702;BME280;36670;50.094;8.496;2022-10-31T09:27:29;100762.22;;;16.32;69.10
50702;BME280;36670;50.094;8.496;2022-10-31T09:29:55;100764.72;;;16.49;69.30
50702;BME280;36670;50.094;8.496;2022-10-31T09:32:20;100749.66;;;16.50;69.28
50702;BME280;36670;50.094;8.496;2022-10-31T09:34:45;100747.41;;;16.57;68.63
50702;BME280;36670;50.094;8.496;2022-10-31T09:37:11;100757.19;;;16.60;69.02
50702;BME280;36670;50.094;8.496;2022-10-31T09:39:36;100758.53;;;16.78;68.71
50702;BME280;36670;50.094;8.496;2022-10-31T09:42:13;100761.59;;;16.71;68.78
50702;BME280;36670;50.094;8.496;2022-10-31T09:44:46;100759.66;;;16.71;69.21
50702;BME280;36670;50.094;8.496;2022-10-31T09:47:31;100754.91;;;16.93;68.33
50702;BME280;36670;50.094;8.496;2022-10-31T09:50:44;100757.97;;;16.91;68.97
50702;BME280;36670;50.094;8.496;2022-10-31T09:53:27;100758.97;;;17.16;67.54
50702;BME280;36670;50.094;8.496;2022-10-31T09:55:55;100752.88;;;17.03;68.46
50702;BME280;36670;50.094;8.496;2022-10-31T09:58:24;100749.28;;;16.98;68.79
50702;BME280;36670;50.094;8.496;2022-10-31T10:00:50;100738.13;;;16.98;68.88
50702;BME280;36670;50.094;8.496;2022-10-31T10:05:56;100729.16;;;17.61;67.45
50702;BME280;36670;50.094;8.496;2022-10-31T10:08:27;100730.03;;;17.51;67.08
50702;BME280;36670;50.094;8.496;2022-10-31T10:13:57;100728.94;;;17.52;67.42
50702;BME280;36670;50.094;8.496;2022-10-31T10:19:33;100734.53;;;17.92;66.90
50702;BME280;36670;50.094;8.496;2022-10-31T10:22:30;100725.97;;;18.13;66.48
50702;BME280;36670;50.094;8.496;2022-10-31T10:25:21;100725.66;;;18.19;66.20
50702;BME280;36670;50.094;8.496;2022-10-31T10:28:08;100719.59;;;18.36;65.41
50702;BME280;36670;50.094;8.496;2022-10-31T10:30:42;100717.94;;;18.35;64.97
50702;BME280;36670;50.094;8.496;2022-10-31T10:33:11;100720.22;;;17.99;66.48
50702;BME280;36670;50.094;8.496;2022-10-31T10:35:53;100713.56;;;18.53;65.36
50702;BME280;36670;50.094;8.496;2022-10-31T10:41:20;100708.72;;;18.59;64.89
50702;BME280;36670;50.094;8.496;2022-10-31T10:43:49;100715.69;;;18.62;65.27
50702;BME280;36670;50.094;8.496;2022-10-31T10:49:40;100708.56;;;18.74;64.35
50702;BME280;36670;50.094;8.496;2022-10-31T10:52:30;100704.06;;;19.03;65.41
50702;BME280;36670;50.094;8.496;2022-10-31T10:58:03;100701.78;;;19.05;63.33
50702;BME280;36670;50.094;8.496;2022-10-31T11:00:34;100700.28;;;19.13;64.21
50702;BME280;36670;50.094;8.496;2022-10-31T11:03:01;100687.97;;;19.33;63.67
50702;BME280;36670;50.094;8.496;2022-10-31T11:07:51;100679.03;;;19.12;63.62
50702;BME280;36670;50.094;8.496;2022-10-31T11:10:17;100676.00;;;18.84;64.73
50702;BME280;36670;50.094;8.496;2022-10-31T11:12:45;100668.34;;;19.14;64.15
50702;BME280;36670;50.094;8.496;2022-10-31T11:15:22;100656.97;;;19.29;62.94
50702;BME280;36670;50.094;8.496;2022-10-31T11:17:51;100656.09;;;19.48;62.48
50702;BME280;36670;50.094;8.496;2022-10-31T11:22:45;100649.75;;;19.23;63.40
50702;BME280;36670;50.094;8.496;2022-10-31T11:27:45;100655.50;;;19.51;63.30
50702;BME280;36670;50.094;8.496;2022-10-31T11:30:13;100648.16;;;19.36;63.65
50702;BME280;36670;50.094;8.496;2022-10-31T11:32:44;100630.56;;;19.68;62.34
50702;BME280;36670;50.094;8.496;2022-10-31T11:35:14;100623.22;;;19.72;63.24
50702;BME280;36670;50.094;8.496;2022-10-31T11:37:44;100608.69;;;19.70;62.01
50702;BME280;36670;50.094;8.496;2022-10-31T11:40:18;100611.44;;;19.56;62.94
50702;BME280;36670;50.094;8.496;2022-10-31T11:42:46;100598.91;;;19.68;62.97
50702;BME280;36670;50.094;8.496;2022-10-31T11:47:52;100606.56;;;19.81;62.27
50702;BME280;36670;50.094;8.496;2022-10-31T11:52:47;100614.03;;;19.86;61.60
50702;BME280;36670;50.094;8.496;2022-10-31T11:55:16;100604.91;;;19.94;61.69
50702;BME280;36670;50.094;8.496;2022-10-31T11:57:50;100593.41;;;19.95;61.57
50702;BME280;36670;50.094;8.496;2022-10-31T12:00:30;100591.88;;;20.17;61.16
50702;BME280;36670;50.094;8.496;2022-10-31T12:05:44;100591.66;;;20.00;61.06
50702;BME280;36670;50.094;8.496;2022-10-31T12:08:13;100592.06;;;20.21;59.96
50702;BME280;36670;50.094;8.496;2022-10-31T12:14:06;100589.81;;;20.37;59.84
50702;BME280;36670;50.094;8.496;2022-10-31T12:22:22;100581.16;;;20.47;58.44
50702;BME280;36670;50.094;8.496;2022-10-31T12:25:14;100583.50;;;20.95;58.60
50702;BME280;36670;50.094;8.496;2022-10-31T12:30:37;100583.09;;;21.25;58.73
50702;BME280;36670;50.094;8.496;2022-10-31T12:39:18;100543.34;;;21.31;55.94
50702;BME280;36670;50.094;8.496;2022-10-31T12:41:52;100535.75;;;21.32;55.35
50702;BME280;36670;50.094;8.496;2022-10-31T12:44:33;100516.25;;;21.27;56.53
50702;BME280;36670;50.094;8.496;2022-10-31T12:47:22;100497.91;;;21.07;57.03
50702;BME280;36670;50.094;8.496;2022-10-31T12:52:54;100521.94;;;20.76;57.11
50702;BME280;36670;50.094;8.496;2022-10-31T12:58:01;100509.53;;;20.91;57.24
50702;BME280;36670;50.094;8.496;2022-10-31T13:00:31;100504.88;;;21.09;56.00
50702;BME280;36670;50.094;8.496;2022-10-31T13:03:05;100496.06;;;21.25;56.20
50702;BME280;36670;50.094;8.496;2022-10-31T13:05:38;100486.03;;;21.33;55.35
50702;BME280;36670;50.094;8.496;2022-10-31T13:08:17;100486.22;;;21.36;55.45
50702;BME280;36670;50.094;8.496;2022-10-31T13:10:50;100475.72;;;21.19;56.41
50702;BME280;36670;50.094;8.496;2022-10-31T13:16:30;100482.75;;;20.85;56.12
50702;BME280;36670;50.094;8.496;2022-10-31T13:19:14;100479.59;;;21.09;56.02
50702;BME280;36670;50.094;8.496;2022-10-31T13:21:50;100475.06;;;21.22;55.88
50702;BME280;36670;50.094;8.496;2022-10-31T13:24:23;100464.31;;;21.16;56.13
50702;BME280;36670;50.094;8.496;2022-10-31T13:26:54;100462.81;;;21.18;55.18
50702;BME280;36670;50.094;8.496;2022-10-31T13:29:36;100465.31;;;21.20;56.09
50702;BME280;36670;50.094;8.496;2022-10-31T13:32:04;100454.00;;;21.34;55.84
50702;BME280;36670;50.094;8.496;2022-10-31T13:34:43;100444.78;;;21.42;56.05
50702;BME280;36670;50.094;8.496;2022-10-31T13:37:35;100450.66;;;21.54;55.54
50702;BME280;36670;50.094;8.496;2022-10-31T13:40:32;100449.84;;;21.54;55.98
50702;BME280;36670;50.094;8.496;2022-10-31T13:45:47;100436.31;;;21.33;57.04
50702;BME280;36670;50.094;8.496;2022-10-31T13:50:39;100439.25;;;20.96;57.94
50702;BME280;36670;50.094;8.496;2022-10-31T13:53:11;100435.25;;;21.20;57.06
50702;BME280;36670;50.094;8.496;2022-10-31T13:56:03;100437.06;;;21.16;57.44
50702;BME280;36670;50.094;8.496;2022-10-31T13:58:30;100431.81;;;21.23;56.91
50702;BME280;36670;50.094;8.496;2022-10-31T14:03:38;100419.19;;;21.12;57.45
50702;BME280;36670;50.094;8.496;2022-10-31T14:06:06;100428.13;;;20.91;57.60
50702;BME280;36670;50.094;8.496;2022-10-31T14:08:35;100417.69;;;20.83;57.35
50702;BME280;36670;50.094;8.496;2022-10-31T14:11:02;100416.75;;;20.88;57.76
50702;BME280;36670;50.094;8.496;2022-10-31T14:13:35;100414.00;;;20.74;58.20
50702;BME280;36670;50.094;8.496;2022-10-31T14:16:20;100403.72;;;20.69;58.32
50702;BME280;36670;50.094;8.496;2022-10-31T14:18:50;100401.31;;;20.62;58.54
50702;BME280;36670;50.094;8.496;2022-10-31T14:23:48;100399.75;;;20.70;58.81
50702;BME280;36670;50.094;8.496;2022-10-31T14:28:49;100410.66;;;20.72;59.30
50702;BME280;36670;50.094;8.496;2022-10-31T14:31:37;100412.22;;;21.09;58.53
50702;BME280;36670;50.094;8.496;2022-10-31T14:34:18;100429.03;;;21.32;58.33
50702;BME280;36670;50.094;8.496;2022-10-31T14:47:59;100411.72;;;21.70;56.12
50702;BME280;36670;50.094;8.496;2022-10-31T14:53:03;100406.50;;;21.14;56.64
50702;BME280;36670;50.094;8.496;2022-10-31T14:55:29;100399.34;;;21.08;57.01
50702;BME280;36670;50.094;8.496;2022-10-31T14:57:59;100406.91;;;21.30;56.68